sensor_id;sensor_type;location;lat;lon;timestamp;P1;durP1;ratioP1;P2;durP2;ratioP2
58768;SDS011;44536;47.474;19.056;2024-01-30T00:00:09;9.13;;;8.18;;
58768;SDS011;44536;47.474;19.056;2024-01-30T00:06:14;7.20;;;5.15;;
58768;SDS011;44536;47.474;19.056;2024-01-30T00:09:17;7.78;;;6.43;;
58768;SDS011;44536;47.474;19.056;2024-01-30T00:12:19;32.05;;;5.00;;
58768;SDS011;44536;47.474;19.056;2024-01-30T00:15:21;11.82;;;8.43;;
58768;SDS011;44536;47.474;19.056;2024-01-30T00:18:23;9.60;;;7.03;;
58768;SDS011;44536;47.474;19.056;2024-01-30T00:21:25;14.23;;;7.43;;
58768;SDS011;44536;47.474;19.056;2024-01-30T00:24:27;14.55;;;7.47;;
58768;SDS011;44536;47.474;19.056;2024-01-30T00:27:29;13.20;;;5.78;;
58768;SDS011;44536;47.474;19.056;2024-01-30T00:30:31;11.73;;;10.07;;
58768;SDS011;44536;47.474;19.056;2024-01-30T00:33:33;8.18;;;6.22;;
58768;SDS011;44536;47.474;19.056;2024-01-30T00:36:35;7.75;;;5.72;;
58768;SDS011;44536;47.474;19.056;2024-01-30T00:39:37;13.02;;;6.80;;
58768;SDS011;44536;47.474;19.056;2024-01-30T00:42:40;7.87;;;4.72;;
58768;SDS011;44536;47.474;19.056;2024-01-30T00:45:45;6.63;;;5.03;;
58768;SDS011;44536;47.474;19.056;2024-01-30T00:48:47;18.73;;;7.53;;
58768;SDS011;44536;47.474;19.056;2024-01-30T00:51:49;13.55;;;5.65;;
58768;SDS011;44536;47.474;19.056;2024-01-30T00:54:51;14.73;;;9.60;;
58768;SDS011;44536;47.474;19.056;2024-01-30T00:57:54;11.77;;;7.62;;
58768;SDS011;44536;47.474;19.056;2024-01-30T01:00:56;13.38;;;8.23;;
58768;SDS011;44536;47.474;19.056;2024-01-30T01:03:59;9.00;;;5.80;;
58768;SDS011;44536;47.474;19.056;2024-01-30T01:07:01;11.57;;;7.87;;
58768;SDS011;44536;47.474;19.056;2024-01-30T01:10:03;18.77;;;7.50;;
58768;SDS011;44536;47.474;19.056;2024-01-30T01:13:05;27.73;;;11.50;;
58768;SDS011;44536;47.474;19.056;2024-01-30T01:16:08;9.52;;;7.82;;
58768;SDS011;44536;47.474;19.056;2024-01-30T01:19:10;8.43;;;6.50;;
58768;SDS011;44536;47.474;19.056;2024-01-30T01:22:12;10.70;;;5.47;;
58768;SDS011;44536;47.474;19.056;2024-01-30T01:25:14;12.52;;;9.50;;
58768;SDS011;44536;47.474;19.056;2024-01-30T01:28:17;13.10;;;8.43;;
58768;SDS011;44536;47.474;19.056;2024-01-30T01:31:19;11.75;;;6.65;;
58768;SDS011;44536;47.474;19.056;2024-01-30T01:34:25;8.80;;;5.72;;
58768;SDS011;44536;47.474;19.056;2024-01-30T01:37:31;9.32;;;6.53;;
58768;SDS011;44536;47.474;19.056;2024-01-30T01:40:33;11.68;;;7.75;;
58768;SDS011;44536;47.474;19.056;2024-01-30T01:43:35;12.82;;;7.18;;
58768;SDS011;44536;47.474;19.056;2024-01-30T01:46:40;9.88;;;8.23;;
58768;SDS011;44536;47.474;19.056;2024-01-30T01:49:42;13.90;;;7.80;;
58768;SDS011;44536;47.474;19.056;2024-01-30T01:52:45;16.40;;;8.60;;
58768;SDS011;44536;47.474;19.056;2024-01-30T01:55:48;9.23;;;6.25;;
58768;SDS011;44536;47.474;19.056;2024-01-30T01:58:51;13.77;;;7.57;;
58768;SDS011;44536;47.474;19.056;2024-01-30T02:01:56;7.72;;;6.22;;
58768;SDS011;44536;47.474;19.056;2024-01-30T02:04:58;9.30;;;5.60;;
58768;SDS011;44536;47.474;19.056;2024-01-30T02:08:01;15.63;;;7.30;;
58768;SDS011;44536;47.474;19.056;2024-01-30T02:11:03;21.33;;;7.95;;
58768;SDS011;44536;47.474;19.056;2024-01-30T02:14:06;10.23;;;6.57;;
58768;SDS011;44536;47.474;19.056;2024-01-30T02:17:08;21.43;;;10.77;;
58768;SDS011;44536;47.474;19.056;2024-01-30T02:20:10;15.93;;;10.45;;
58768;SDS011;44536;47.474;19.056;2024-01-30T02:23:12;17.00;;;5.80;;
58768;SDS011;44536;47.474;19.056;2024-01-30T02:26:15;13.75;;;9.45;;
58768;SDS011;44536;47.474;19.056;2024-01-30T02:29:18;14.45;;;7.40;;
58768;SDS011;44536;47.474;19.056;2024-01-30T02:32:20;10.45;;;6.93;;
58768;SDS011;44536;47.474;19.056;2024-01-30T02:35:22;6.87;;;6.18;;
58768;SDS011;44536;47.474;19.056;2024-01-30T02:38:24;11.20;;;7.05;;
58768;SDS011;44536;47.474;19.056;2024-01-30T02:41:27;13.75;;;6.12;;
58768;SDS011;44536;47.474;19.056;2024-01-30T02:44:28;19.12;;;7.97;;
58768;SDS011;44536;47.474;19.056;2024-01-30T02:47:31;10.57;;;9.52;;
58768;SDS011;44536;47.474;19.056;2024-01-30T02:50:33;14.63;;;9.15;;
58768;SDS011;44536;47.474;19.056;2024-01-30T02:53:35;7.90;;;6.73;;
58768;SDS011;44536;47.474;19.056;2024-01-30T02:56:37;11.77;;;6.80;;
58768;SDS011;44536;47.474;19.056;2024-01-30T02:59:39;18.67;;;7.72;;
58768;SDS011;44536;47.474;19.056;2024-01-30T03:02:41;10.25;;;6.85;;
58768;SDS011;44536;47.474;19.056;2024-01-30T03:05:44;12.07;;;8.10;;
58768;SDS011;44536;47.474;19.056;2024-01-30T03:08:46;15.18;;;5.37;;
58768;SDS011;44536;47.474;19.056;2024-01-30T03:11:48;6.47;;;4.80;;
58768;SDS011;44536;47.474;19.056;2024-01-30T03:14:51;14.85;;;9.88;;
58768;SDS011;44536;47.474;19.056;2024-01-30T03:17:53;11.68;;;9.48;;
58768;SDS011;44536;47.474;19.056;2024-01-30T03:20:55;17.25;;;8.40;;
58768;SDS011;44536;47.474;19.056;2024-01-30T03:23:58;24.00;;;8.73;;
58768;SDS011;44536;47.474;19.056;2024-01-30T03:27:00;13.88;;;9.40;;
58768;SDS011;44536;47.474;19.056;2024-01-30T03:30:02;11.65;;;8.40;;
58768;SDS011;44536;47.474;19.056;2024-01-30T03:33:04;12.90;;;8.97;;
58768;SDS011;44536;47.474;19.056;2024-01-30T03:36:07;13.48;;;10.43;;
58768;SDS011;44536;47.474;19.056;2024-01-30T03:39:09;8.90;;;4.63;;
58768;SDS011;44536;47.474;19.056;2024-01-30T03:42:11;14.10;;;10.38;;
58768;SDS011;44536;47.474;19.056;2024-01-30T03:45:13;15.02;;;8.30;;
58768;SDS011;44536;47.474;19.056;2024-01-30T03:48:16;11.50;;;9.20;;
58768;SDS011;44536;47.474;19.056;2024-01-30T03:51:18;13.38;;;10.15;;
58768;SDS011;44536;47.474;19.056;2024-01-30T03:54:20;13.38;;;7.43;;
58768;SDS011;44536;47.474;19.056;2024-01-30T03:57:22;14.40;;;9.30;;
58768;SDS011;44536;47.474;19.056;2024-01-30T04:00:24;9.05;;;5.78;;
58768;SDS011;44536;47.474;19.056;2024-01-30T04:03:26;20.15;;;9.07;;
58768;SDS011;44536;47.474;19.056;2024-01-30T04:06:28;13.23;;;7.12;;
58768;SDS011;44536;47.474;19.056;2024-01-30T04:09:31;8.45;;;4.62;;
58768;SDS011;44536;47.474;19.056;2024-01-30T04:12:34;13.52;;;6.03;;
58768;SDS011;44536;47.474;19.056;2024-01-30T04:15:36;6.45;;;5.30;;
58768;SDS011;44536;47.474;19.056;2024-01-30T04:18:38;12.80;;;8.65;;
58768;SDS011;44536;47.474;19.056;2024-01-30T04:21:40;11.95;;;9.05;;
58768;SDS011;44536;47.474;19.056;2024-01-30T04:24:42;8.90;;;5.10;;
58768;SDS011;44536;47.474;19.056;2024-01-30T04:27:45;7.07;;;5.72;;
58768;SDS011;44536;47.474;19.056;2024-01-30T04:30:47;4.95;;;4.45;;
58768;SDS011;44536;47.474;19.056;2024-01-30T04:33:49;9.95;;;6.43;;
58768;SDS011;44536;47.474;19.056;2024-01-30T04:36:51;14.43;;;11.15;;
58768;SDS011;44536;47.474;19.056;2024-01-30T04:39:53;11.93;;;6.20;;
58768;SDS011;44536;47.474;19.056;2024-01-30T04:42:55;9.55;;;7.20;;
58768;SDS011;44536;47.474;19.056;2024-01-30T04:45:58;9.20;;;7.60;;
58768;SDS011;44536;47.474;19.056;2024-01-30T04:49:00;12.70;;;8.05;;
58768;SDS011;44536;47.474;19.056;2024-01-30T04:52:02;9.30;;;6.75;;
58768;SDS011;44536;47.474;19.056;2024-01-30T04:55:04;10.75;;;7.05;;
58768;SDS011;44536;47.474;19.056;2024-01-30T04:58:07;10.90;;;7.93;;
58768;SDS011;44536;47.474;19.056;2024-01-30T05:01:09;14.75;;;8.73;;
58768;SDS011;44536;47.474;19.056;2024-01-30T05:04:12;19.15;;;8.63;;
58768;SDS011;44536;47.474;19.056;2024-01-30T05:07:19;10.75;;;6.62;;
58768;SDS011;44536;47.474;19.056;2024-01-30T05:10:22;15.90;;;7.05;;
58768;SDS011;44536;47.474;19.056;2024-01-30T05:13:24;12.18;;;6.37;;
58768;SDS011;44536;47.474;19.056;2024-01-30T05:16:26;13.20;;;8.93;;
58768;SDS011;44536;47.474;19.056;2024-01-30T05:19:28;9.35;;;8.23;;
58768;SDS011;44536;47.474;19.056;2024-01-30T05:22:31;22.63;;;11.33;;
58768;SDS011;44536;47.474;19.056;2024-01-30T05:25:32;9.80;;;5.07;;
58768;SDS011;44536;47.474;19.056;2024-01-30T05:28:35;12.47;;;6.07;;
58768;SDS011;44536;47.474;19.056;2024-01-30T05:31:38;16.02;;;9.02;;
58768;SDS011;44536;47.474;19.056;2024-01-30T05:34:41;19.25;;;6.97;;
58768;SDS011;44536;47.474;19.056;2024-01-30T05:37:43;11.32;;;7.32;;
58768;SDS011;44536;47.474;19.056;2024-01-30T05:40:47;7.12;;;5.35;;
58768;SDS011;44536;47.474;19.056;2024-01-30T05:43:49;10.40;;;8.77;;
58768;SDS011;44536;47.474;19.056;2024-01-30T05:46:54;10.30;;;5.72;;
58768;SDS011;44536;47.474;19.056;2024-01-30T05:49:57;11.57;;;7.43;;
58768;SDS011;44536;47.474;19.056;2024-01-30T05:56:01;11.80;;;6.32;;
58768;SDS011;44536;47.474;19.056;2024-01-30T05:59:04;5.80;;;5.28;;
58768;SDS011;44536;47.474;19.056;2024-01-30T06:02:06;6.78;;;4.93;;
58768;SDS011;44536;47.474;19.056;2024-01-30T06:05:08;10.23;;;5.95;;
58768;SDS011;44536;47.474;19.056;2024-01-30T06:08:11;7.65;;;5.55;;
58768;SDS011;44536;47.474;19.056;2024-01-30T06:11:14;12.25;;;6.97;;
58768;SDS011;44536;47.474;19.056;2024-01-30T06:14:16;8.68;;;7.15;;
58768;SDS011;44536;47.474;19.056;2024-01-30T06:17:18;14.40;;;9.67;;
58768;SDS011;44536;47.474;19.056;2024-01-30T06:20:21;11.18;;;8.75;;
58768;SDS011;44536;47.474;19.056;2024-01-30T06:23:24;12.45;;;6.90;;
58768;SDS011;44536;47.474;19.056;2024-01-30T06:26:26;11.52;;;10.38;;
58768;SDS011;44536;47.474;19.056;2024-01-30T06:29:28;16.80;;;9.57;;
58768;SDS011;44536;47.474;19.056;2024-01-30T06:32:30;10.18;;;8.25;;
58768;SDS011;44536;47.474;19.056;2024-01-30T06:35:36;7.57;;;6.57;;
58768;SDS011;44536;47.474;19.056;2024-01-30T06:38:45;11.40;;;7.50;;
58768;SDS011;44536;47.474;19.056;2024-01-30T06:41:47;8.65;;;7.55;;
58768;SDS011;44536;47.474;19.056;2024-01-30T06:44:49;10.73;;;8.30;;
58768;SDS011;44536;47.474;19.056;2024-01-30T06:47:52;13.10;;;8.15;;
58768;SDS011;44536;47.474;19.056;2024-01-30T06:50:54;10.38;;;7.40;;
58768;SDS011;44536;47.474;19.056;2024-01-30T06:53:57;9.75;;;8.55;;
58768;SDS011;44536;47.474;19.056;2024-01-30T06:57:14;12.80;;;9.68;;
58768;SDS011;44536;47.474;19.056;2024-01-30T07:00:18;13.80;;;11.90;;
58768;SDS011;44536;47.474;19.056;2024-01-30T07:03:21;12.98;;;9.85;;
58768;SDS011;44536;47.474;19.056;2024-01-30T07:09:28;15.43;;;8.43;;
58768;SDS011;44536;47.474;19.056;2024-01-30T07:12:31;13.83;;;9.83;;
58768;SDS011;44536;47.474;19.056;2024-01-30T07:15:33;13.27;;;9.53;;
58768;SDS011;44536;47.474;19.056;2024-01-30T07:18:37;17.10;;;12.18;;
58768;SDS011;44536;47.474;19.056;2024-01-30T07:21:40;16.52;;;11.38;;
58768;SDS011;44536;47.474;19.056;2024-01-30T07:24:43;17.23;;;11.50;;
58768;SDS011;44536;47.474;19.056;2024-01-30T07:27:51;13.98;;;8.75;;
58768;SDS011;44536;47.474;19.056;2024-01-30T07:30:53;20.13;;;9.50;;
58768;SDS011;44536;47.474;19.056;2024-01-30T07:33:56;12.82;;;9.13;;
58768;SDS011;44536;47.474;19.056;2024-01-30T07:40:02;16.23;;;10.25;;
58768;SDS011;44536;47.474;19.056;2024-01-30T07:43:05;12.57;;;10.27;;
58768;SDS011;44536;47.474;19.056;2024-01-30T07:46:08;16.52;;;13.73;;
58768;SDS011;44536;47.474;19.056;2024-01-30T07:49:12;17.40;;;13.18;;
58768;SDS011;44536;47.474;19.056;2024-01-30T07:52:16;14.80;;;11.38;;
58768;SDS011;44536;47.474;19.056;2024-01-30T07:55:19;20.58;;;11.05;;
58768;SDS011;44536;47.474;19.056;2024-01-30T07:58:23;16.52;;;11.77;;
58768;SDS011;44536;47.474;19.056;2024-01-30T08:01:26;19.62;;;10.75;;
58768;SDS011;44536;47.474;19.056;2024-01-30T08:04:30;23.12;;;13.02;;
58768;SDS011;44536;47.474;19.056;2024-01-30T08:07:33;17.98;;;9.70;;
58768;SDS011;44536;47.474;19.056;2024-01-30T08:10:35;13.13;;;10.38;;
58768;SDS011;44536;47.474;19.056;2024-01-30T08:13:53;16.23;;;11.90;;
58768;SDS011;44536;47.474;19.056;2024-01-30T08:17:04;13.10;;;8.52;;
58768;SDS011;44536;47.474;19.056;2024-01-30T08:20:07;15.35;;;8.48;;
58768;SDS011;44536;47.474;19.056;2024-01-30T08:23:16;17.15;;;8.95;;
58768;SDS011;44536;47.474;19.056;2024-01-30T08:26:29;12.95;;;9.02;;
58768;SDS011;44536;47.474;19.056;2024-01-30T08:29:33;17.80;;;11.45;;
58768;SDS011;44536;47.474;19.056;2024-01-30T08:32:35;13.68;;;10.07;;
58768;SDS011;44536;47.474;19.056;2024-01-30T08:35:42;24.42;;;10.73;;
58768;SDS011;44536;47.474;19.056;2024-01-30T08:38:45;26.67;;;14.85;;
58768;SDS011;44536;47.474;19.056;2024-01-30T08:41:47;18.90;;;13.45;;
58768;SDS011;44536;47.474;19.056;2024-01-30T08:44:49;18.73;;;12.40;;
58768;SDS011;44536;47.474;19.056;2024-01-30T08:47:54;18.73;;;10.93;;
58768;SDS011;44536;47.474;19.056;2024-01-30T08:50:56;17.20;;;9.70;;
58768;SDS011;44536;47.474;19.056;2024-01-30T08:53:59;15.18;;;8.40;;
58768;SDS011;44536;47.474;19.056;2024-01-30T08:57:01;17.52;;;9.77;;
58768;SDS011;44536;47.474;19.056;2024-01-30T09:00:04;17.00;;;11.93;;
58768;SDS011;44536;47.474;19.056;2024-01-30T09:03:08;19.50;;;11.68;;
58768;SDS011;44536;47.474;19.056;2024-01-30T09:06:11;22.00;;;10.95;;
58768;SDS011;44536;47.474;19.056;2024-01-30T09:09:13;15.33;;;10.40;;
58768;SDS011;44536;47.474;19.056;2024-01-30T09:12:16;16.48;;;8.80;;
58768;SDS011;44536;47.474;19.056;2024-01-30T09:15:19;21.20;;;13.68;;
58768;SDS011;44536;47.474;19.056;2024-01-30T09:18:24;18.40;;;10.80;;
58768;SDS011;44536;47.474;19.056;2024-01-30T09:21:26;25.58;;;14.30;;
58768;SDS011;44536;47.474;19.056;2024-01-30T09:24:29;21.80;;;11.82;;
58768;SDS011;44536;47.474;19.056;2024-01-30T09:27:31;16.15;;;12.25;;
58768;SDS011;44536;47.474;19.056;2024-01-30T09:30:33;19.40;;;11.20;;
58768;SDS011;44536;47.474;19.056;2024-01-30T09:33:35;26.48;;;13.13;;
58768;SDS011;44536;47.474;19.056;2024-01-30T09:36:38;15.60;;;9.40;;
58768;SDS011;44536;47.474;19.056;2024-01-30T09:39:41;22.00;;;11.07;;
58768;SDS011;44536;47.474;19.056;2024-01-30T09:42:43;17.75;;;13.73;;
58768;SDS011;44536;47.474;19.056;2024-01-30T09:45:48;19.12;;;10.02;;
58768;SDS011;44536;47.474;19.056;2024-01-30T09:48:51;23.52;;;12.93;;
58768;SDS011;44536;47.474;19.056;2024-01-30T09:51:54;21.58;;;13.07;;
58768;SDS011;44536;47.474;19.056;2024-01-30T09:54:57;21.48;;;15.35;;
58768;SDS011;44536;47.474;19.056;2024-01-30T09:58:01;20.67;;;13.43;;
58768;SDS011;44536;47.474;19.056;2024-01-30T10:01:03;22.05;;;13.50;;
58768;SDS011;44536;47.474;19.056;2024-01-30T10:04:06;19.83;;;11.95;;
58768;SDS011;44536;47.474;19.056;2024-01-30T10:07:09;25.08;;;16.98;;
58768;SDS011;44536;47.474;19.056;2024-01-30T10:10:12;29.45;;;16.02;;
58768;SDS011;44536;47.474;19.056;2024-01-30T10:13:14;34.30;;;16.40;;
58768;SDS011;44536;47.474;19.056;2024-01-30T10:16:16;23.75;;;13.00;;
58768;SDS011;44536;47.474;19.056;2024-01-30T10:19:18;21.98;;;12.88;;
58768;SDS011;44536;47.474;19.056;2024-01-30T10:22:21;21.95;;;14.27;;
58768;SDS011;44536;47.474;19.056;2024-01-30T10:25:23;25.95;;;13.82;;
58768;SDS011;44536;47.474;19.056;2024-01-30T10:31:28;26.33;;;14.63;;
58768;SDS011;44536;47.474;19.056;2024-01-30T10:34:31;25.48;;;14.00;;
58768;SDS011;44536;47.474;19.056;2024-01-30T10:37:34;30.03;;;14.77;;
58768;SDS011;44536;47.474;19.056;2024-01-30T10:40:37;23.70;;;13.90;;
58768;SDS011;44536;47.474;19.056;2024-01-30T10:43:41;27.48;;;14.60;;
58768;SDS011;44536;47.474;19.056;2024-01-30T10:46:44;25.60;;;15.68;;
58768;SDS011;44536;47.474;19.056;2024-01-30T10:49:47;21.30;;;13.18;;
58768;SDS011;44536;47.474;19.056;2024-01-30T10:52:50;22.00;;;13.67;;
58768;SDS011;44536;47.474;19.056;2024-01-30T10:55:52;20.65;;;13.98;;
58768;SDS011;44536;47.474;19.056;2024-01-30T10:58:56;25.35;;;13.90;;
58768;SDS011;44536;47.474;19.056;2024-01-30T11:01:58;27.80;;;13.65;;
58768;SDS011;44536;47.474;19.056;2024-01-30T11:05:04;24.27;;;13.55;;
58768;SDS011;44536;47.474;19.056;2024-01-30T11:08:13;22.52;;;13.30;;
58768;SDS011;44536;47.474;19.056;2024-01-30T11:11:16;23.70;;;12.65;;
58768;SDS011;44536;47.474;19.056;2024-01-30T11:14:23;29.77;;;11.57;;
58768;SDS011;44536;47.474;19.056;2024-01-30T11:17:27;20.77;;;11.57;;
58768;SDS011;44536;47.474;19.056;2024-01-30T11:20:30;24.80;;;10.82;;
58768;SDS011;44536;47.474;19.056;2024-01-30T11:23:34;23.65;;;12.93;;
58768;SDS011;44536;47.474;19.056;2024-01-30T11:26:36;20.37;;;11.85;;
58768;SDS011;44536;47.474;19.056;2024-01-30T11:29:40;19.23;;;11.00;;
58768;SDS011;44536;47.474;19.056;2024-01-30T11:32:42;19.42;;;10.50;;
58768;SDS011;44536;47.474;19.056;2024-01-30T11:35:44;21.20;;;10.38;;
58768;SDS011;44536;47.474;19.056;2024-01-30T11:38:47;21.90;;;12.23;;
58768;SDS011;44536;47.474;19.056;2024-01-30T11:41:50;16.10;;;10.18;;
58768;SDS011;44536;47.474;19.056;2024-01-30T11:44:53;19.52;;;12.00;;
58768;SDS011;44536;47.474;19.056;2024-01-30T11:47:55;17.42;;;11.07;;
58768;SDS011;44536;47.474;19.056;2024-01-30T11:50:58;18.77;;;11.82;;
58768;SDS011;44536;47.474;19.056;2024-01-30T11:54:00;21.12;;;10.63;;
58768;SDS011;44536;47.474;19.056;2024-01-30T11:57:02;18.08;;;11.38;;
58768;SDS011;44536;47.474;19.056;2024-01-30T12:00:05;20.45;;;11.88;;
58768;SDS011;44536;47.474;19.056;2024-01-30T12:03:12;17.17;;;9.88;;
58768;SDS011;44536;47.474;19.056;2024-01-30T12:06:16;13.60;;;9.70;;
58768;SDS011;44536;47.474;19.056;2024-01-30T12:09:19;17.15;;;10.07;;
58768;SDS011;44536;47.474;19.056;2024-01-30T12:12:27;16.15;;;9.50;;
58768;SDS011;44536;47.474;19.056;2024-01-30T12:15:32;19.00;;;11.38;;
58768;SDS011;44536;47.474;19.056;2024-01-30T12:18:34;15.88;;;9.13;;
58768;SDS011;44536;47.474;19.056;2024-01-30T12:21:38;15.65;;;10.05;;
58768;SDS011;44536;47.474;19.056;2024-01-30T12:24:40;15.05;;;8.55;;
58768;SDS011;44536;47.474;19.056;2024-01-30T12:27:44;14.63;;;9.10;;
58768;SDS011;44536;47.474;19.056;2024-01-30T12:30:46;13.75;;;9.10;;
58768;SDS011;44536;47.474;19.056;2024-01-30T12:33:49;15.10;;;8.65;;
58768;SDS011;44536;47.474;19.056;2024-01-30T12:36:51;13.40;;;8.50;;
58768;SDS011;44536;47.474;19.056;2024-01-30T12:39:53;16.87;;;8.75;;
58768;SDS011;44536;47.474;19.056;2024-01-30T12:42:55;14.87;;;7.93;;
58768;SDS011;44536;47.474;19.056;2024-01-30T12:45:58;14.75;;;8.48;;
58768;SDS011;44536;47.474;19.056;2024-01-30T12:49:01;11.05;;;7.35;;
58768;SDS011;44536;47.474;19.056;2024-01-30T12:52:04;13.02;;;7.47;;
58768;SDS011;44536;47.474;19.056;2024-01-30T12:55:06;12.02;;;7.18;;
58768;SDS011;44536;47.474;19.056;2024-01-30T12:58:08;10.50;;;5.78;;
58768;SDS011;44536;47.474;19.056;2024-01-30T13:01:11;10.73;;;5.93;;
58768;SDS011;44536;47.474;19.056;2024-01-30T13:04:13;11.63;;;6.25;;
58768;SDS011;44536;47.474;19.056;2024-01-30T13:07:16;9.68;;;4.72;;
58768;SDS011;44536;47.474;19.056;2024-01-30T13:10:19;10.15;;;4.03;;
58768;SDS011;44536;47.474;19.056;2024-01-30T13:13:21;8.02;;;3.17;;
58768;SDS011;44536;47.474;19.056;2024-01-30T13:16:24;6.97;;;4.05;;
58768;SDS011;44536;47.474;19.056;2024-01-30T13:19:26;13.35;;;5.40;;
58768;SDS011;44536;47.474;19.056;2024-01-30T13:22:29;8.85;;;3.12;;
58768;SDS011;44536;47.474;19.056;2024-01-30T13:25:31;8.68;;;5.12;;
58768;SDS011;44536;47.474;19.056;2024-01-30T13:28:41;6.18;;;3.70;;
58768;SDS011;44536;47.474;19.056;2024-01-30T13:31:43;9.32;;;5.20;;
58768;SDS011;44536;47.474;19.056;2024-01-30T13:34:48;9.25;;;4.18;;
58768;SDS011;44536;47.474;19.056;2024-01-30T13:37:50;7.97;;;4.45;;
58768;SDS011;44536;47.474;19.056;2024-01-30T13:40:52;7.65;;;4.70;;
58768;SDS011;44536;47.474;19.056;2024-01-30T13:43:55;6.07;;;3.33;;
58768;SDS011;44536;47.474;19.056;2024-01-30T13:46:57;10.73;;;5.43;;
58768;SDS011;44536;47.474;19.056;2024-01-30T13:49:59;9.93;;;4.68;;
58768;SDS011;44536;47.474;19.056;2024-01-30T13:53:02;10.65;;;5.65;;
58768;SDS011;44536;47.474;19.056;2024-01-30T13:56:07;10.13;;;5.37;;
58768;SDS011;44536;47.474;19.056;2024-01-30T13:59:09;8.70;;;4.97;;
58768;SDS011;44536;47.474;19.056;2024-01-30T14:02:11;10.60;;;5.22;;
58768;SDS011;44536;47.474;19.056;2024-01-30T14:05:14;13.10;;;4.75;;
58768;SDS011;44536;47.474;19.056;2024-01-30T14:08:17;9.65;;;5.18;;
58768;SDS011;44536;47.474;19.056;2024-01-30T14:11:19;11.30;;;5.57;;
58768;SDS011;44536;47.474;19.056;2024-01-30T14:14:21;9.50;;;4.78;;
58768;SDS011;44536;47.474;19.056;2024-01-30T14:17:23;13.27;;;5.55;;
58768;SDS011;44536;47.474;19.056;2024-01-30T14:20:25;11.48;;;5.85;;
58768;SDS011;44536;47.474;19.056;2024-01-30T14:23:28;11.02;;;5.40;;
58768;SDS011;44536;47.474;19.056;2024-01-30T14:26:30;13.20;;;5.70;;
58768;SDS011;44536;47.474;19.056;2024-01-30T14:29:32;10.75;;;5.18;;
58768;SDS011;44536;47.474;19.056;2024-01-30T14:32:34;20.30;;;5.47;;
58768;SDS011;44536;47.474;19.056;2024-01-30T14:35:37;11.50;;;5.20;;
58768;SDS011;44536;47.474;19.056;2024-01-30T14:38:39;11.88;;;4.28;;
58768;SDS011;44536;47.474;19.056;2024-01-30T14:41:41;12.50;;;5.75;;
58768;SDS011;44536;47.474;19.056;2024-01-30T14:44:43;15.10;;;6.22;;
58768;SDS011;44536;47.474;19.056;2024-01-30T14:47:46;10.82;;;5.40;;
58768;SDS011;44536;47.474;19.056;2024-01-30T14:50:48;9.40;;;4.95;;
58768;SDS011;44536;47.474;19.056;2024-01-30T14:53:50;9.15;;;5.37;;
58768;SDS011;44536;47.474;19.056;2024-01-30T14:56:53;11.95;;;5.45;;
58768;SDS011;44536;47.474;19.056;2024-01-30T14:59:55;11.77;;;5.47;;
58768;SDS011;44536;47.474;19.056;2024-01-30T15:02:58;9.00;;;5.60;;
58768;SDS011;44536;47.474;19.056;2024-01-30T15:06:00;11.60;;;6.53;;
58768;SDS011;44536;47.474;19.056;2024-01-30T15:09:02;10.45;;;6.87;;
58768;SDS011;44536;47.474;19.056;2024-01-30T15:12:05;10.07;;;3.87;;
58768;SDS011;44536;47.474;19.056;2024-01-30T15:15:07;13.43;;;3.97;;
58768;SDS011;44536;47.474;19.056;2024-01-30T15:18:10;15.80;;;5.75;;
58768;SDS011;44536;47.474;19.056;2024-01-30T15:21:13;9.40;;;4.97;;
58768;SDS011;44536;47.474;19.056;2024-01-30T15:24:15;15.30;;;7.43;;
58768;SDS011;44536;47.474;19.056;2024-01-30T15:27:19;12.48;;;5.35;;
58768;SDS011;44536;47.474;19.056;2024-01-30T15:30:22;9.50;;;6.28;;
58768;SDS011;44536;47.474;19.056;2024-01-30T15:33:23;11.95;;;7.07;;
58768;SDS011;44536;47.474;19.056;2024-01-30T15:36:28;12.82;;;6.15;;
58768;SDS011;44536;47.474;19.056;2024-01-30T15:39:30;7.43;;;4.50;;
58768;SDS011;44536;47.474;19.056;2024-01-30T15:42:33;5.68;;;3.10;;
58768;SDS011;44536;47.474;19.056;2024-01-30T15:45:36;9.15;;;4.35;;
58768;SDS011;44536;47.474;19.056;2024-01-30T15:48:40;9.50;;;6.32;;
58768;SDS011;44536;47.474;19.056;2024-01-30T15:51:42;8.90;;;5.30;;
58768;SDS011;44536;47.474;19.056;2024-01-30T15:54:45;12.77;;;6.47;;
58768;SDS011;44536;47.474;19.056;2024-01-30T15:57:47;7.07;;;4.78;;
58768;SDS011;44536;47.474;19.056;2024-01-30T16:00:50;9.95;;;6.47;;
58768;SDS011;44536;47.474;19.056;2024-01-30T16:03:52;8.50;;;4.68;;
58768;SDS011;44536;47.474;19.056;2024-01-30T16:06:54;10.25;;;5.78;;
58768;SDS011;44536;47.474;19.056;2024-01-30T16:09:57;18.43;;;6.20;;
58768;SDS011;44536;47.474;19.056;2024-01-30T16:12:59;13.75;;;6.93;;
58768;SDS011;44536;47.474;19.056;2024-01-30T16:16:01;14.23;;;8.00;;
58768;SDS011;44536;47.474;19.056;2024-01-30T16:19:03;11.75;;;7.32;;
58768;SDS011;44536;47.474;19.056;2024-01-30T16:22:06;13.05;;;5.68;;
58768;SDS011;44536;47.474;19.056;2024-01-30T16:25:08;10.40;;;5.93;;
58768;SDS011;44536;47.474;19.056;2024-01-30T16:28:10;12.63;;;5.72;;
58768;SDS011;44536;47.474;19.056;2024-01-30T16:31:12;12.32;;;7.10;;
58768;SDS011;44536;47.474;19.056;2024-01-30T16:34:20;12.90;;;6.00;;
58768;SDS011;44536;47.474;19.056;2024-01-30T16:37:22;18.73;;;7.57;;
58768;SDS011;44536;47.474;19.056;2024-01-30T16:40:24;9.93;;;6.82;;
58768;SDS011;44536;47.474;19.056;2024-01-30T16:43:26;23.55;;;10.60;;
58768;SDS011;44536;47.474;19.056;2024-01-30T16:46:29;14.10;;;5.82;;
58768;SDS011;44536;47.474;19.056;2024-01-30T16:49:31;11.88;;;7.15;;
58768;SDS011;44536;47.474;19.056;2024-01-30T16:52:33;13.07;;;7.95;;
58768;SDS011;44536;47.474;19.056;2024-01-30T16:55:35;17.48;;;7.53;;
58768;SDS011;44536;47.474;19.056;2024-01-30T16:58:38;15.07;;;7.18;;
58768;SDS011;44536;47.474;19.056;2024-01-30T17:01:40;10.07;;;6.55;;
58768;SDS011;44536;47.474;19.056;2024-01-30T17:04:45;8.95;;;5.43;;
58768;SDS011;44536;47.474;19.056;2024-01-30T17:07:47;12.02;;;5.75;;
58768;SDS011;44536;47.474;19.056;2024-01-30T17:10:50;13.62;;;8.73;;
58768;SDS011;44536;47.474;19.056;2024-01-30T17:13:51;10.82;;;7.43;;
58768;SDS011;44536;47.474;19.056;2024-01-30T17:16:54;21.62;;;10.55;;
58768;SDS011;44536;47.474;19.056;2024-01-30T17:20:04;16.45;;;11.75;;
58768;SDS011;44536;47.474;19.056;2024-01-30T17:23:07;16.80;;;11.88;;
58768;SDS011;44536;47.474;19.056;2024-01-30T17:26:10;18.40;;;13.85;;
58768;SDS011;44536;47.474;19.056;2024-01-30T17:29:12;24.48;;;13.20;;
58768;SDS011;44536;47.474;19.056;2024-01-30T17:32:16;20.83;;;14.13;;
58768;SDS011;44536;47.474;19.056;2024-01-30T17:35:19;17.27;;;10.27;;
58768;SDS011;44536;47.474;19.056;2024-01-30T17:38:21;20.30;;;12.95;;
58768;SDS011;44536;47.474;19.056;2024-01-30T17:41:23;15.40;;;9.13;;
58768;SDS011;44536;47.474;19.056;2024-01-30T17:44:25;23.38;;;10.40;;
58768;SDS011;44536;47.474;19.056;2024-01-30T17:47:27;17.98;;;12.95;;
58768;SDS011;44536;47.474;19.056;2024-01-30T17:50:29;20.50;;;13.00;;
58768;SDS011;44536;47.474;19.056;2024-01-30T17:53:32;30.25;;;15.38;;
58768;SDS011;44536;47.474;19.056;2024-01-30T17:56:34;20.67;;;12.43;;
58768;SDS011;44536;47.474;19.056;2024-01-30T17:59:36;25.73;;;14.25;;
58768;SDS011;44536;47.474;19.056;2024-01-30T18:02:38;20.50;;;13.35;;